Time;durP1;ratioP1;P1;durP2;ratioP2;P2;SDS_P1;SDS_P2;PMS_P1;PMS_P2;Temp;Humidity;BMP_temperature;BMP_pressure;BME280_temperature;BME280_humidity;BME280_pressure;Samples;Min_cycle;Max_cycle;Signal;HPM_P1;HPM_P2
2024/01/02 00:01:27;0.00;0.00;0.62;0.00;0.00;0.62;2.30;1.20;;;20.80;26.60;;;;;;2256991;61;20921;-56
2024/01/02 00:04:11;0.00;0.00;0.62;0.00;0.00;0.62;2.17;1.30;;;20.70;26.50;;;;;;2257047;61;20501;-58
2024/01/02 00:06:56;0.00;0.00;0.62;0.00;0.00;0.62;2.30;1.43;;;20.70;26.50;;;;;;2257018;61;20461;-59
2024/01/02 00:09:41;0.00;0.00;0.62;0.00;0.00;0.62;1.70;1.23;;;20.80;26.60;;;;;;2256439;61;20446;-58
2024/01/02 00:12:27;0.00;0.00;0.62;0.00;0.00;0.62;2.00;1.10;;;20.70;26.50;;;;;;2256756;61;20961;-55
2024/01/02 00:15:12;0.00;0.00;0.62;0.00;0.00;0.62;2.33;1.43;;;20.70;26.50;;;;;;2257069;61;20373;-55
2024/01/02 00:17:58;0.00;0.00;0.62;0.00;0.00;0.62;2.87;1.17;;;20.80;26.60;;;;;;2256628;61;20883;-55
2024/01/02 00:20:42;0.00;0.00;0.62;0.00;0.00;0.62;1.90;1.27;;;20.70;26.50;;;;;;2256849;61;20380;-58
2024/01/02 00:23:27;0.00;0.00;0.62;0.00;0.00;0.62;2.13;1.33;;;20.70;26.50;;;;;;2256598;61;20401;-54
2024/01/02 00:26:11;0.00;0.00;0.62;0.00;0.00;0.62;2.50;1.30;;;20.70;26.50;;;;;;2256534;61;20362;-56
2024/01/02 00:28:58;0.00;0.00;0.62;0.00;0.00;0.62;2.40;1.40;;;20.80;26.60;;;;;;2256943;61;20836;-58
2024/01/02 00:31:44;0.00;0.00;0.62;0.00;0.00;0.62;3.53;1.33;;;20.80;26.60;;;;;;2256061;61;20397;-54
2024/01/02 00:34:29;0.00;0.00;0.62;0.00;0.00;0.62;3.37;1.50;;;20.70;26.50;;;;;;2257026;61;20417;-59
2024/01/02 00:37:13;0.00;0.00;0.62;0.00;0.00;0.62;2.60;1.53;;;20.80;26.60;;;;;;2256825;61;20370;-55
2024/01/02 00:39:58;0.00;0.00;0.62;0.00;0.00;0.62;2.53;1.50;;;20.80;26.60;;;;;;2255995;61;20440;-56
2024/01/02 00:42:43;0.00;0.00;0.62;0.00;0.00;0.62;2.10;1.20;;;20.80;26.60;;;;;;2255908;61;20878;-57
2024/01/02 00:45:29;0.00;0.00;0.62;0.00;0.00;0.62;2.17;1.30;;;20.80;26.60;;;;;;2256437;61;20902;-58
2024/01/02 00:48:13;0.00;0.00;0.62;0.00;0.00;0.62;2.10;1.30;;;20.80;26.60;;;;;;2256311;61;20521;-56
2024/01/02 00:51:00;0.00;0.00;0.62;0.00;0.00;0.62;2.33;1.00;;;20.80;26.50;;;;;;2256947;61;20696;-56
2024/01/02 00:53:45;0.00;0.00;0.62;0.00;0.00;0.62;2.30;1.20;;;20.80;26.50;;;;;;2256121;61;20374;-59
2024/01/02 00:56:29;0.00;0.00;0.62;0.00;0.00;0.62;2.50;1.10;;;20.80;26.50;;;;;;2256533;61;20388;-55
2024/01/02 00:59:14;0.00;0.00;0.62;0.00;0.00;0.62;4.30;1.10;;;20.80;26.50;;;;;;2256947;61;20413;-56
2024/01/02 01:02:00;0.00;0.00;0.62;0.00;0.00;0.62;2.00;1.33;;;20.80;26.50;;;;;;2256292;61;20366;-57
2024/01/02 01:04:48;0.00;0.00;0.62;0.00;0.00;0.62;2.87;1.63;;;20.80;26.50;;;;;;2256633;61;20370;-59
2024/01/02 01:07:33;0.00;0.00;0.62;0.00;0.00;0.62;2.43;1.10;;;20.80;26.50;;;;;;2256806;61;20381;-54
2024/01/02 01:10:18;0.00;0.00;0.62;0.00;0.00;0.62;1.90;1.00;;;20.70;26.40;;;;;;2255981;61;20395;-58
2024/01/02 01:13:03;0.00;0.00;0.62;0.00;0.00;0.62;2.43;1.30;;;20.70;26.50;;;;;;2256468;61;20429;-57
2024/01/02 01:15:47;0.00;0.00;0.62;0.00;0.00;0.62;1.77;1.17;;;20.80;26.50;;;;;;2256337;61;20760;-56
2024/01/02 01:18:33;0.00;0.00;0.62;0.00;0.00;0.62;2.10;1.30;;;20.70;26.40;;;;;;2256893;61;20832;-56
2024/01/02 01:21:19;0.00;0.00;0.62;0.00;0.00;0.62;2.03;1.00;;;20.80;26.50;;;;;;2256721;61;20486;-55
2024/01/02 01:24:05;0.00;0.00;0.62;0.00;0.00;0.62;1.87;1.00;;;20.70;26.40;;;;;;2256143;61;20450;-57
2024/01/02 01:26:52;0.00;0.00;0.62;0.00;0.00;0.62;1.60;0.90;;;20.80;26.50;;;;;;2256721;61;20366;-54
2024/01/02 01:30:03;0.00;0.00;0.62;0.00;0.00;0.62;2.03;1.20;;;20.80;26.50;;;;;;2274602;40;20817;31
2024/01/02 01:32:48;0.00;0.00;0.62;0.00;0.00;0.62;1.83;1.10;;;20.80;26.50;;;;;;2249188;61;20400;-56
2024/01/02 01:35:34;0.00;0.00;0.62;0.00;0.00;0.62;2.57;1.17;;;20.70;26.40;;;;;;2248920;61;20888;-53
2024/01/02 01:38:19;0.00;0.00;0.62;0.00;0.00;0.62;2.13;1.10;;;20.80;26.50;;;;;;2245102;61;20376;-57
2024/01/02 01:41:03;0.00;0.00;0.62;0.00;0.00;0.62;1.90;1.20;;;20.70;26.40;;;;;;2244158;61;20937;-58
2024/01/02 01:43:48;0.00;0.00;0.62;0.00;0.00;0.62;1.80;1.10;;;20.80;26.50;;;;;;2244412;61;20893;-58
2024/01/02 01:46:36;0.00;0.00;0.62;0.00;0.00;0.62;2.63;1.30;;;20.70;26.40;;;;;;2244416;61;20947;-55
2024/01/02 01:49:22;0.00;0.00;0.62;0.00;0.00;0.62;2.10;1.30;;;20.80;26.50;;;;;;2241586;61;20909;-56
2024/01/02 01:52:09;0.00;0.00;0.62;0.00;0.00;0.62;2.00;1.30;;;20.80;26.50;;;;;;2244503;61;20444;-56
2024/01/02 01:54:54;0.00;0.00;0.62;0.00;0.00;0.62;2.23;1.13;;;20.80;26.50;;;;;;2244095;61;20424;-55
2024/01/02 01:57:40;0.00;0.00;0.62;0.00;0.00;0.62;2.27;1.00;;;20.80;26.50;;;;;;2244538;61;20571;-57
2024/01/02 02:00:26;0.00;0.00;0.62;0.00;0.00;0.62;2.70;1.40;;;20.80;26.40;;;;;;2241212;61;20384;-54
2024/01/02 02:03:12;0.00;0.00;0.62;0.00;0.00;0.62;2.27;1.20;;;20.70;26.40;;;;;;2241205;61;20645;-57
2024/01/02 02:05:57;0.00;0.00;0.62;0.00;0.00;0.62;2.43;1.30;;;20.80;26.40;;;;;;2244620;61;20974;-56
2024/01/02 02:08:43;0.00;0.00;0.62;0.00;0.00;0.62;1.87;1.10;;;20.70;26.40;;;;;;2241057;61;20389;-56
2024/01/02 02:11:29;0.00;0.00;0.62;0.00;0.00;0.62;2.33;1.07;;;20.80;26.40;;;;;;2244556;61;20431;-57
2024/01/02 02:14:13;0.00;0.00;0.62;0.00;0.00;0.62;1.90;0.90;;;20.80;26.40;;;;;;2244626;61;20404;-55
2024/01/02 02:16:58;0.00;0.00;0.62;0.00;0.00;0.62;2.57;1.40;;;20.70;26.40;;;;;;2240986;61;20415;-56
2024/01/02 02:19:42;0.00;0.00;0.62;0.00;0.00;0.62;3.57;1.40;;;20.80;26.40;;;;;;2246646;61;20365;-58
2024/01/02 02:22:35;0.00;0.00;0.62;0.00;0.00;0.62;1.87;1.03;;;20.80;26.40;;;;;;2243285;61;20455;-56
2024/01/02 02:25:22;0.00;0.00;0.62;0.00;0.00;0.62;1.60;0.97;;;20.80;26.40;;;;;;2244216;61;20900;-55
2024/01/02 02:28:07;0.00;0.00;0.62;0.00;0.00;0.62;2.00;1.10;;;20.80;26.40;;;;;;2244168;61;20377;-52
2024/01/02 02:30:51;0.00;0.00;0.62;0.00;0.00;0.62;2.13;1.00;;;20.70;26.40;;;;;;2243698;61;20400;-54
2024/01/02 02:33:37;0.00;0.00;0.62;0.00;0.00;0.62;2.13;1.33;;;20.70;26.40;;;;;;2239847;61;20466;-56
2024/01/02 02:36:21;0.00;0.00;0.62;0.00;0.00;0.62;1.97;1.20;;;20.70;26.40;;;;;;2244676;61;20949;-54
2024/01/02 02:39:09;0.00;0.00;0.62;0.00;0.00;0.62;1.70;0.97;;;20.70;26.40;;;;;;2240949;61;20415;-54
2024/01/02 02:41:55;0.00;0.00;0.62;0.00;0.00;0.62;2.80;1.00;;;20.70;26.90;;;;;;2241124;61;20929;-56
2024/01/02 02:44:42;0.00;0.00;0.62;0.00;0.00;0.62;1.60;0.70;;;20.70;26.40;;;;;;2244216;61;20371;-54
2024/01/02 02:47:27;0.00;0.00;0.62;0.00;0.00;0.62;2.57;1.20;;;20.70;26.40;;;;;;2244577;61;20424;-54
2024/01/02 02:50:11;0.00;0.00;0.62;0.00;0.00;0.62;2.03;1.00;;;20.70;26.30;;;;;;2244662;61;20401;-54
2024/01/02 02:52:56;0.00;0.00;0.62;0.00;0.00;0.62;2.20;1.10;;;20.70;26.40;;;;;;2243751;61;20929;-57
2024/01/02 02:55:40;0.00;0.00;0.62;0.00;0.00;0.62;1.73;1.00;;;20.70;26.40;;;;;;2244553;61;20373;-52
2024/01/02 02:58:26;0.00;0.00;0.62;0.00;0.00;0.62;1.77;1.10;;;20.70;26.30;;;;;;2244663;61;20942;-61
2024/01/02 03:01:21;0.00;0.00;0.62;0.00;0.00;0.62;2.20;1.10;;;20.70;26.30;;;;;;2243971;61;20396;-61
2024/01/02 03:04:06;0.00;0.00;0.62;0.00;0.00;0.62;3.30;1.23;;;20.70;26.40;;;;;;2244614;61;20381;-56
2024/01/02 03:06:51;0.00;0.00;0.62;0.00;0.00;0.62;2.80;1.23;;;20.70;26.30;;;;;;2243950;61;20627;-53
2024/01/02 03:09:35;0.00;0.00;0.62;0.00;0.00;0.62;2.50;1.20;;;20.70;26.30;;;;;;2244529;61;20384;-50
2024/01/02 03:12:20;0.00;0.00;0.62;0.00;0.00;0.62;2.20;1.03;;;20.70;26.30;;;;;;2244118;61;20807;-54
2024/01/02 03:15:08;0.00;0.00;0.62;0.00;0.00;0.62;3.00;0.90;;;20.70;26.30;;;;;;2244208;61;20822;-55
2024/01/02 03:17:53;0.00;0.00;0.62;0.00;0.00;0.62;1.77;0.90;;;20.70;26.30;;;;;;2241203;61;20493;-53
2024/01/02 03:20:37;0.00;0.00;0.62;0.00;0.00;0.62;1.93;1.13;;;20.70;26.30;;;;;;2244529;61;20388;-52
2024/01/02 03:23:22;0.00;0.00;0.62;0.00;0.00;0.62;1.80;1.10;;;20.70;26.30;;;;;;2243920;61;20365;-52
2024/01/02 03:26:06;0.00;0.00;0.62;0.00;0.00;0.62;2.33;1.13;;;20.70;26.30;;;;;;2244486;61;20416;-57
2024/01/02 03:28:51;0.00;0.00;0.62;0.00;0.00;0.62;1.60;0.80;;;20.70;26.30;;;;;;2244690;61;20945;-55
2024/01/02 03:31:37;0.00;0.00;0.62;0.00;0.00;0.62;1.97;1.00;;;20.70;26.40;;;;;;2244900;61;20944;-53
2024/01/02 03:34:22;0.00;0.00;0.62;0.00;0.00;0.62;2.50;0.90;;;20.70;26.30;;;;;;2244926;61;20381;-55
2024/01/02 03:37:08;0.00;0.00;0.62;0.00;0.00;0.62;1.73;0.97;;;20.70;26.30;;;;;;2244870;61;20933;-53
2024/01/02 03:39:53;0.00;0.00;0.62;0.00;0.00;0.62;2.50;1.13;;;20.70;26.30;;;;;;2244954;61;20388;-56
2024/01/02 03:42:37;0.00;0.00;0.62;0.00;0.00;0.62;1.70;0.90;;;20.70;26.30;;;;;;2245044;61;20368;-55
2024/01/02 03:45:22;0.00;0.00;0.62;0.00;0.00;0.62;2.20;1.00;;;20.70;26.30;;;;;;2244854;61;20367;-55
2024/01/02 03:48:08;0.00;0.00;0.62;0.00;0.00;0.62;1.83;0.90;;;20.70;26.30;;;;;;2245220;61;20372;-56
2024/01/02 03:50:53;0.00;0.00;0.62;0.00;0.00;0.62;1.70;0.93;;;20.70;26.40;;;;;;2244915;61;20388;-55
2024/01/02 03:53:37;0.00;0.00;0.62;0.00;0.00;0.62;2.63;1.10;;;20.70;26.30;;;;;;2245006;61;20480;-51
2024/01/02 03:56:22;0.00;0.00;0.62;0.00;0.00;0.62;2.03;0.90;;;20.70;26.30;;;;;;2245011;61;20368;-54
2024/01/02 03:59:06;0.00;0.00;0.62;0.00;0.00;0.62;2.17;1.00;;;20.70;26.30;;;;;;2244620;61;20424;-54
2024/01/02 04:01:51;0.00;0.00;0.62;0.00;0.00;0.62;2.57;1.10;;;20.70;26.30;;;;;;2244678;61;20443;-53
2024/01/02 04:04:38;0.00;0.00;0.62;0.00;0.00;0.62;2.97;0.93;;;20.70;26.30;;;;;;2245092;61;21090;-56
2024/01/02 04:07:23;0.00;0.00;0.62;0.00;0.00;0.62;2.03;0.93;;;20.70;26.30;;;;;;2244767;61;20372;-52
2024/01/02 04:10:08;0.00;0.00;0.62;0.00;0.00;0.62;1.87;1.03;;;20.70;26.30;;;;;;2245154;61;20871;-55
2024/01/02 04:12:53;0.00;0.00;0.62;0.00;0.00;0.62;1.90;0.80;;;20.70;26.30;;;;;;2244611;61;20392;-55
2024/01/02 04:15:38;0.00;0.00;0.62;0.00;0.00;0.62;2.23;1.00;;;20.70;26.30;;;;;;2244781;61;20893;-50
2024/01/02 04:18:22;0.00;0.00;0.62;0.00;0.00;0.62;1.83;0.90;;;20.70;26.30;;;;;;2244889;61;20423;-56
2024/01/02 04:21:08;0.00;0.00;0.62;0.00;0.00;0.62;2.03;1.00;;;20.70;26.30;;;;;;2244582;61;20467;-55
2024/01/02 04:23:53;0.00;0.00;0.62;0.00;0.00;0.62;1.90;0.90;;;20.70;26.40;;;;;;2244791;61;20444;-55
2024/01/02 04:26:38;0.00;0.00;0.62;0.00;0.00;0.62;3.27;0.80;;;20.70;26.30;;;;;;2245058;61;20379;-56
2024/01/02 04:29:22;0.00;0.00;0.62;0.00;0.00;0.62;1.70;0.90;;;20.70;26.30;;;;;;2244787;61;20365;-53
2024/01/02 04:32:07;0.00;0.00;0.62;0.00;0.00;0.62;2.70;0.97;;;20.70;26.30;;;;;;2244547;61;20443;-54
2024/01/02 04:34:51;0.00;0.00;0.62;0.00;0.00;0.62;2.63;0.90;;;20.70;26.30;;;;;;2244954;61;20384;-55
2024/01/02 04:37:37;0.00;0.00;0.62;0.00;0.00;0.62;2.10;1.00;;;20.70;26.30;;;;;;2244724;61;20493;-54
2024/01/02 04:40:22;0.00;0.00;0.62;0.00;0.00;0.62;2.00;1.20;;;20.70;26.30;;;;;;2244841;61;20388;-54
2024/01/02 04:43:06;0.00;0.00;0.62;0.00;0.00;0.62;1.80;0.83;;;20.70;26.40;;;;;;2243905;61;20423;-52
2024/01/02 04:45:51;0.00;0.00;0.62;0.00;0.00;0.62;1.60;0.70;;;20.70;26.90;;;;;;2244978;61;20373;-56
2024/01/02 04:48:36;0.00;0.00;0.62;0.00;0.00;0.62;1.57;0.77;;;20.70;26.30;;;;;;2244922;61;20897;-54
2024/01/02 04:51:20;0.00;0.00;0.62;0.00;0.00;0.62;1.80;0.90;;;20.70;26.30;;;;;;2244527;61;20448;-54
2024/01/02 04:54:07;0.00;0.00;0.62;0.00;0.00;0.62;1.50;0.77;;;20.70;26.30;;;;;;2244959;61;20368;-52
2024/01/02 04:56:53;0.00;0.00;0.62;0.00;0.00;0.62;2.47;0.90;;;20.70;26.40;;;;;;2244628;61;20422;-57
2024/01/02 04:59:37;0.00;0.00;0.62;0.00;0.00;0.62;1.50;0.80;;;20.70;26.30;;;;;;2244740;61;20449;-51
2024/01/02 05:02:25;0.00;0.00;0.62;0.00;0.00;0.62;2.30;0.93;;;20.70;26.30;;;;;;2244739;61;20372;-56
2024/01/02 05:05:09;0.00;0.00;0.62;0.00;0.00;0.62;1.53;0.90;;;20.70;26.40;;;;;;2244461;61;20948;-53
2024/01/02 05:07:54;0.00;0.00;0.62;0.00;0.00;0.62;2.10;0.83;;;20.70;26.40;;;;;;2245067;61;20364;-57
2024/01/02 05:10:40;0.00;0.00;0.62;0.00;0.00;0.62;1.57;1.00;;;20.70;26.40;;;;;;2244799;61;20577;-64
2024/01/02 05:13:24;0.00;0.00;0.62;0.00;0.00;0.62;2.17;0.80;;;20.70;26.40;;;;;;2244205;61;20416;-54
2024/01/02 05:16:09;0.00;0.00;0.62;0.00;0.00;0.62;1.40;0.60;;;20.70;26.40;;;;;;2244798;61;20436;-53
2024/01/02 05:18:54;0.00;0.00;0.62;0.00;0.00;0.62;1.57;0.70;;;20.70;26.40;;;;;;2244730;61;20424;-53
2024/01/02 05:21:39;0.00;0.00;0.62;0.00;0.00;0.62;2.00;0.90;;;20.80;26.40;;;;;;2244371;61;20481;-54
2024/01/02 05:24:23;0.00;0.00;0.62;0.00;0.00;0.62;1.63;1.00;;;20.70;26.40;;;;;;2244701;61;20368;-54
2024/01/02 05:27:09;0.00;0.00;0.62;0.00;0.00;0.62;1.53;0.80;;;20.70;26.40;;;;;;2244761;61;20428;-53
2024/01/02 05:29:54;0.00;0.00;0.62;0.00;0.00;0.62;1.83;1.00;;;20.70;26.40;;;;;;2244701;61;20428;-62
2024/01/02 05:32:38;0.00;0.00;0.62;0.00;0.00;0.62;1.30;0.70;;;20.70;26.40;;;;;;2244579;61;20594;-54
2024/01/02 05:35:23;0.00;0.00;0.62;0.00;0.00;0.62;2.00;1.00;;;20.70;26.40;;;;;;2244377;61;20356;-55
2024/01/02 05:38:07;0.00;0.00;0.62;0.00;0.00;0.62;3.77;0.97;;;20.70;26.40;;;;;;2244872;61;20371;-56
2024/01/02 05:40:52;0.00;0.00;0.62;0.00;0.00;0.62;1.47;0.73;;;20.70;26.40;;;;;;2244640;61;21074;-55
2024/01/02 05:43:38;0.00;0.00;0.62;0.00;0.00;0.62;1.30;0.70;;;20.70;26.40;;;;;;2244083;61;20383;-57
2024/01/02 05:46:22;0.00;0.00;0.62;0.00;0.00;0.62;1.60;1.00;;;20.70;26.40;;;;;;2244764;61;20473;-52
2024/01/02 05:49:07;0.00;0.00;0.62;0.00;0.00;0.62;1.47;0.70;;;20.70;26.40;;;;;;2244877;61;20921;-56
2024/01/02 05:51:52;0.00;0.00;0.62;0.00;0.00;0.62;1.30;0.73;;;20.70;26.40;;;;;;2243885;61;20432;-55
2024/01/02 05:54:36;0.00;0.00;0.62;0.00;0.00;0.62;1.50;0.80;;;20.70;26.40;;;;;;2244846;61;20461;-56
2024/01/02 05:57:21;0.00;0.00;0.62;0.00;0.00;0.62;1.70;0.80;;;20.70;26.40;;;;;;2244407;61;20512;-55
2024/01/02 06:00:08;0.00;0.00;0.62;0.00;0.00;0.62;1.67;0.80;;;20.70;26.40;;;;;;2244694;61;20999;-54
2024/01/02 06:02:53;0.00;0.00;0.62;0.00;0.00;0.62;1.60;0.70;;;20.70;26.40;;;;;;2244308;61;20368;-57
2024/01/02 06:05:37;0.00;0.00;0.62;0.00;0.00;0.62;1.40;0.70;;;20.70;26.40;;;;;;2241319;61;20925;-50
2024/01/02 06:08:22;0.00;0.00;0.62;0.00;0.00;0.62;1.20;0.60;;;20.70;26.40;;;;;;2244545;61;20368;-56
2024/01/02 06:11:07;0.00;0.00;0.62;0.00;0.00;0.62;1.30;0.73;;;20.70;26.40;;;;;;2244744;61;20393;-53
2024/01/02 06:13:52;0.00;0.00;0.62;0.00;0.00;0.62;1.80;0.80;;;20.70;26.40;;;;;;2243982;61;20396;-53
2024/01/02 06:16:38;0.00;0.00;0.62;0.00;0.00;0.62;1.40;0.70;;;20.70;26.40;;;;;;2244638;61;20499;-51
2024/01/02 06:19:23;0.00;0.00;0.62;0.00;0.00;0.62;1.43;0.77;;;20.70;26.40;;;;;;2244191;61;20361;-57
2024/01/02 06:22:07;0.00;0.00;0.62;0.00;0.00;0.62;2.13;0.80;;;20.70;26.40;;;;;;2244556;61;20411;-53
2024/01/02 06:24:52;0.00;0.00;0.62;0.00;0.00;0.62;1.47;0.80;;;20.70;26.40;;;;;;2244637;61;20368;-50
2024/01/02 06:27:37;0.00;0.00;0.62;0.00;0.00;0.62;1.97;0.77;;;20.70;26.40;;;;;;2244479;61;20369;-54
2024/01/02 06:30:22;0.00;0.00;0.62;0.00;0.00;0.62;2.03;0.80;;;20.70;26.40;;;;;;2244403;61;20891;-56
2024/01/02 06:33:07;0.00;0.00;0.62;0.00;0.00;0.62;1.40;0.70;;;20.70;26.40;;;;;;2244150;61;20837;-52
2024/01/02 06:35:52;0.00;0.00;0.62;0.00;0.00;0.62;1.30;0.60;;;20.70;26.40;;;;;;2244357;61;20403;-53
2024/01/02 06:38:38;0.00;0.00;0.62;0.00;0.00;0.62;1.70;0.80;;;20.70;26.40;;;;;;2244590;61;20383;-52
2024/01/02 06:41:23;0.00;0.00;0.62;0.00;0.00;0.62;1.50;0.80;;;20.70;26.40;;;;;;2243940;61;20925;-54
2024/01/02 06:44:07;0.00;0.00;0.62;0.00;0.00;0.62;1.80;0.80;;;20.70;26.40;;;;;;2244672;61;20453;-55
2024/01/02 06:46:52;0.00;0.00;0.62;0.00;0.00;0.62;1.30;0.70;;;20.70;26.40;;;;;;2244491;61;20372;-56
2024/01/02 06:49:38;0.00;0.00;0.62;0.00;0.00;0.62;1.40;0.60;;;20.70;26.40;;;;;;2244373;61;20384;-51
2024/01/02 06:52:22;0.00;0.00;0.62;0.00;0.00;0.62;1.70;0.80;;;20.70;26.40;;;;;;2244137;61;20396;-55
2024/01/02 06:55:08;0.00;0.00;0.62;0.00;0.00;0.62;1.50;0.70;;;20.70;26.40;;;;;;2244743;61;20396;-52
2024/01/02 06:57:52;0.00;0.00;0.62;0.00;0.00;0.62;1.70;1.00;;;20.70;26.40;;;;;;2244243;61;20767;-55
2024/01/02 07:00:37;0.00;0.00;0.62;0.00;0.00;0.62;1.60;0.77;;;20.70;26.40;;;;;;2244869;61;20385;-54
2024/01/02 07:03:22;0.00;0.00;0.62;0.00;0.00;0.62;1.60;0.80;;;20.70;26.40;;;;;;2244054;61;20836;-55
2024/01/02 07:06:08;0.00;0.00;0.62;0.00;0.00;0.62;1.80;0.80;;;20.70;26.40;;;;;;2241478;61;20684;-52
2024/01/02 07:08:52;0.00;0.00;0.62;0.00;0.00;0.62;1.50;0.77;;;20.70;26.40;;;;;;2244315;61;20380;-55
2024/01/02 07:11:38;0.00;0.00;0.62;0.00;0.00;0.62;1.90;0.80;;;20.70;26.40;;;;;;2244046;61;20473;-56
2024/01/02 07:14:23;0.00;0.00;0.62;0.00;0.00;0.62;1.20;0.60;;;20.70;26.40;;;;;;2244522;61;20392;-51
2024/01/02 07:17:07;0.00;0.00;0.62;0.00;0.00;0.62;1.57;0.73;;;20.70;26.40;;;;;;2244532;61;20395;-55
2024/01/02 07:19:52;0.00;0.00;0.62;0.00;0.00;0.62;2.10;0.80;;;20.70;26.40;;;;;;2243973;61;20845;-52
2024/01/02 07:22:38;0.00;0.00;0.62;0.00;0.00;0.62;1.20;0.60;;;20.70;26.40;;;;;;2244221;61;20751;-51
2024/01/02 07:25:23;0.00;0.00;0.62;0.00;0.00;0.62;1.80;0.70;;;20.70;26.40;;;;;;2244362;61;20424;-56
2024/01/02 07:28:07;0.00;0.00;0.62;0.00;0.00;0.62;1.50;0.70;;;20.70;26.40;;;;;;2241188;61;20897;-55
2024/01/02 07:30:52;0.00;0.00;0.62;0.00;0.00;0.62;1.57;0.77;;;20.70;26.40;;;;;;2241266;61;20929;-55
2024/01/02 07:33:37;0.00;0.00;0.62;0.00;0.00;0.62;1.70;0.70;;;20.80;26.40;;;;;;2243960;61;20384;-56
2024/01/02 07:36:21;0.00;0.00;0.62;0.00;0.00;0.62;1.80;0.80;;;20.70;26.30;;;;;;2244288;61;20369;-54
2024/01/02 07:39:07;0.00;0.00;0.62;0.00;0.00;0.62;1.60;0.80;;;20.70;26.40;;;;;;2244297;61;20396;-57
2024/01/02 07:41:52;0.00;0.00;0.62;0.00;0.00;0.62;1.50;0.80;;;20.70;26.40;;;;;;2243319;61;20451;-52
2024/01/02 07:44:36;0.00;0.00;0.62;0.00;0.00;0.62;1.90;1.13;;;20.70;26.40;;;;;;2244500;61;20424;-49
2024/01/02 07:47:21;0.00;0.00;0.62;0.00;0.00;0.62;1.90;1.00;;;20.70;26.40;;;;;;2244335;61;20563;-52
2024/01/02 07:50:07;0.00;0.00;0.62;0.00;0.00;0.62;2.80;1.83;;;20.70;26.40;;;;;;2244288;61;20391;-52
2024/01/02 07:52:52;0.00;0.00;0.62;0.00;0.00;0.62;2.47;1.53;;;20.70;26.40;;;;;;2243932;61;20444;-53
2024/01/02 07:55:38;0.00;0.00;0.62;0.00;0.00;0.62;2.10;1.50;;;20.70;26.40;;;;;;2244240;61;20368;-55
2024/01/02 07:58:22;0.00;0.00;0.62;0.00;0.00;0.62;2.43;1.50;;;20.70;26.40;;;;;;2244530;61;20831;-53
2024/01/02 08:01:07;0.00;0.00;0.62;0.00;0.00;0.62;2.97;1.87;;;20.70;26.40;;;;;;2244151;61;20388;-55
2024/01/02 08:03:52;0.00;0.00;0.62;0.00;0.00;0.62;2.87;1.73;;;20.70;26.40;;;;;;2240761;61;20373;-54
2024/01/02 08:06:37;0.00;0.00;0.62;0.00;0.00;0.62;2.67;1.70;;;20.70;26.40;;;;;;2244589;61;20360;-55
2024/01/02 08:09:21;0.00;0.00;0.62;0.00;0.00;0.62;4.03;1.73;;;20.70;26.40;;;;;;2244243;61;20364;-57
2024/01/02 08:12:08;0.00;0.00;0.62;0.00;0.00;0.62;3.33;2.40;;;20.70;26.40;;;;;;2243825;61;20368;-53
2024/01/02 08:14:53;0.00;0.00;0.62;0.00;0.00;0.62;2.90;1.70;;;20.70;26.40;;;;;;2244542;61;20388;-54
2024/01/02 08:17:37;0.00;0.00;0.62;0.00;0.00;0.62;2.80;2.07;;;20.70;26.40;;;;;;2244538;61;20371;-54
2024/01/02 08:20:22;0.00;0.00;0.62;0.00;0.00;0.62;3.50;2.40;;;20.70;26.90;;;;;;2244944;61;20388;-56
2024/01/02 08:23:07;0.00;0.00;0.62;0.00;0.00;0.62;3.13;2.60;;;20.70;26.40;;;;;;2244739;61;20361;-53
2024/01/02 08:25:51;0.00;0.00;0.62;0.00;0.00;0.62;3.90;2.43;;;20.70;27.00;;;;;;2244708;61;20444;-52
2024/01/02 08:28:38;0.00;0.00;0.62;0.00;0.00;0.62;4.10;2.60;;;20.70;26.40;;;;;;2245064;61;20396;-56
2024/01/02 08:31:23;0.00;0.00;0.62;0.00;0.00;0.62;5.13;3.20;;;20.70;26.40;;;;;;2246975;61;20426;-54
2024/01/02 08:34:07;0.00;0.00;0.62;0.00;0.00;0.62;3.37;2.27;;;20.70;26.40;;;;;;2248668;61;20438;-53
2024/01/02 08:36:51;0.00;0.00;0.62;0.00;0.00;0.62;3.57;2.77;;;20.70;26.40;;;;;;2248981;61;20371;-50
2024/01/02 08:39:36;0.00;0.00;0.62;0.00;0.00;0.62;3.90;3.00;;;20.70;26.40;;;;;;2249040;61;20379;-54
2024/01/02 08:42:21;0.00;0.00;0.62;0.00;0.00;0.62;4.27;3.10;;;20.70;26.40;;;;;;2248705;61;20387;-52
2024/01/02 08:45:10;0.00;0.00;0.62;0.00;0.00;0.62;4.00;2.90;;;20.70;26.40;;;;;;2245794;61;20371;-56
2024/01/02 08:47:55;0.00;0.00;0.62;0.00;0.00;0.62;4.17;2.70;;;20.70;26.40;;;;;;2248671;61;20395;-53
2024/01/02 08:50:42;0.00;0.00;0.62;0.00;0.00;0.62;4.13;3.27;;;20.70;26.40;;;;;;2249019;61;20930;-52
2024/01/02 08:53:26;0.00;0.00;0.62;0.00;0.00;0.62;4.97;3.47;;;20.70;26.40;;;;;;2248576;61;20379;-53
2024/01/02 08:56:11;0.00;0.00;0.62;0.00;0.00;0.62;4.83;3.57;;;20.70;26.40;;;;;;2248806;61;20360;-55
2024/01/02 08:58:56;0.00;0.00;0.62;0.00;0.00;0.62;4.30;3.60;;;20.70;26.40;;;;;;2248826;61;20363;-55
2024/01/02 09:01:42;0.00;0.00;0.62;0.00;0.00;0.62;5.00;3.90;;;20.70;26.40;;;;;;2248615;61;20407;-57
2024/01/02 09:04:27;0.00;0.00;0.62;0.00;0.00;0.62;4.60;3.70;;;20.70;26.40;;;;;;2248936;61;20812;-56
2024/01/02 09:07:12;0.00;0.00;0.62;0.00;0.00;0.62;6.33;4.33;;;20.70;26.40;;;;;;2248915;61;20391;-54
2024/01/02 09:09:57;0.00;0.00;0.62;0.00;0.00;0.62;6.13;4.60;;;20.70;26.40;;;;;;2248512;61;20378;-51
2024/01/02 09:12:41;0.00;0.00;0.62;0.00;0.00;0.62;7.40;4.13;;;20.70;26.40;;;;;;2248569;61;20387;-54
2024/01/02 09:15:26;0.00;0.00;0.62;0.00;0.00;0.62;6.10;4.30;;;20.70;26.40;;;;;;2248801;61;20408;-54
2024/01/02 09:18:12;0.00;0.00;0.62;0.00;0.00;0.62;4.80;3.80;;;20.70;26.40;;;;;;2248678;61;20444;-52
2024/01/02 09:20:57;0.00;0.00;0.62;0.00;0.00;0.62;5.97;4.50;;;20.70;26.40;;;;;;2248736;61;20792;-52
2024/01/02 09:23:41;0.00;0.00;0.62;0.00;0.00;0.62;5.80;4.00;;;20.70;26.40;;;;;;2248506;61;20387;-56
2024/01/02 09:26:32;0.00;0.00;0.62;0.00;0.00;0.62;6.13;5.00;;;20.70;26.40;;;;;;2248703;61;20518;-55
2024/01/02 09:29:17;0.00;0.00;0.62;0.00;0.00;0.62;6.13;4.97;;;20.70;26.40;;;;;;2248756;61;20363;-54
2024/01/02 09:32:02;0.00;0.00;0.62;0.00;0.00;0.62;6.23;4.60;;;20.70;26.40;;;;;;2248520;61;20363;-52
2024/01/02 09:34:49;0.00;0.00;0.62;0.00;0.00;0.62;5.30;4.73;;;20.70;26.40;;;;;;2248773;61;20425;-58
2024/01/02 09:37:34;0.00;0.00;0.62;0.00;0.00;0.62;6.60;5.87;;;20.70;26.40;;;;;;2248626;61;20395;-58
2024/01/02 09:40:44;0.00;0.00;0.62;0.00;0.00;0.62;5.13;4.37;;;20.70;26.40;;;;;;2248129;61;20466;-57
2024/01/02 09:43:40;0.00;0.00;0.62;0.00;0.00;0.62;6.30;4.50;;;20.70;26.40;;;;;;2248471;61;21009;-53
2024/01/02 09:46:36;0.00;0.00;0.62;0.00;0.00;0.62;6.07;4.77;;;20.70;26.40;;;;;;2248568;61;20766;-54
2024/01/02 09:49:31;0.00;0.00;0.62;0.00;0.00;0.62;6.13;4.43;;;20.70;26.40;;;;;;2248705;61;20375;-58
2024/01/02 09:52:50;0.00;0.00;0.62;0.00;0.00;0.62;6.20;4.67;;;20.70;26.40;;;;;;2248381;61;20412;-59
2024/01/02 09:55:50;0.00;0.00;0.62;0.00;0.00;0.62;4.93;4.20;;;20.70;26.40;;;;;;2248744;61;20426;-54
2024/01/02 09:58:49;0.00;0.00;0.62;0.00;0.00;0.62;6.17;4.63;;;20.70;26.40;;;;;;2248689;61;20372;-56
2024/01/02 10:01:44;0.00;0.00;0.62;0.00;0.00;0.62;6.00;4.17;;;20.70;26.40;;;;;;2248313;61;20383;-58
2024/01/02 10:04:47;0.00;0.00;0.62;0.00;0.00;0.62;4.87;4.00;;;20.70;26.40;;;;;;2248728;61;20359;-55
2024/01/02 10:08:16;0.00;0.00;0.62;0.00;0.00;0.62;5.30;4.63;;;20.70;26.50;;;;;;2248555;61;20876;-56
2024/01/02 10:11:14;0.00;0.00;0.62;0.00;0.00;0.62;5.63;4.83;;;20.70;26.40;;;;;;2248761;61;20391;-52
2024/01/02 10:14:02;0.00;0.00;0.62;0.00;0.00;0.62;7.00;4.67;;;20.70;26.50;;;;;;2248488;61;20451;-56
2024/01/02 10:17:05;0.00;0.00;0.62;0.00;0.00;0.62;6.10;3.97;;;20.70;26.50;;;;;;2248281;61;20364;-56
2024/01/02 10:20:03;0.00;0.00;0.62;0.00;0.00;0.62;4.87;4.03;;;20.70;26.40;;;;;;2248741;61;20391;-52
2024/01/02 10:22:59;0.00;0.00;0.62;0.00;0.00;0.62;6.40;4.70;;;20.70;27.00;;;;;;2248173;61;20363;-57
2024/01/02 10:25:51;0.00;0.00;0.62;0.00;0.00;0.62;6.80;5.40;;;20.70;26.40;;;;;;2248656;61;20399;-57
2024/01/02 10:28:38;0.00;0.00;0.62;0.00;0.00;0.62;5.63;4.50;;;20.70;26.40;;;;;;2248533;61;20870;-53
2024/01/02 10:31:33;0.00;0.00;0.62;0.00;0.00;0.62;5.43;3.93;;;20.70;26.50;;;;;;2248087;61;20868;-56
2024/01/02 10:34:30;0.00;0.00;0.62;0.00;0.00;0.62;5.70;4.30;;;20.70;26.50;;;;;;2248491;61;20407;-57
2024/01/02 10:37:16;0.00;0.00;0.62;0.00;0.00;0.62;6.83;5.03;;;20.70;26.50;;;;;;2248597;61;20593;-56
2024/01/02 10:40:07;0.00;0.00;0.62;0.00;0.00;0.62;5.13;4.03;;;20.70;26.50;;;;;;2248139;61;20455;-53
2024/01/02 10:43:10;0.00;0.00;0.62;0.00;0.00;0.62;5.73;4.33;;;20.70;26.50;;;;;;2248157;61;20865;-57
2024/01/02 10:46:04;0.00;0.00;0.62;0.00;0.00;0.62;6.10;5.30;;;20.70;26.50;;;;;;2248580;61;20367;-55
2024/01/02 10:48:58;0.00;0.00;0.62;0.00;0.00;0.62;5.87;4.57;;;20.70;26.50;;;;;;2248478;61;20449;-58
2024/01/02 10:51:45;0.00;0.00;0.62;0.00;0.00;0.62;5.70;4.97;;;20.70;26.50;;;;;;2248371;61;20395;-55
2024/01/02 10:54:40;0.00;0.00;0.62;0.00;0.00;0.62;5.77;4.73;;;20.70;27.00;;;;;;2244963;61;20442;-54
2024/01/02 10:57:38;0.00;0.00;0.62;0.00;0.00;0.62;6.00;4.03;;;20.70;26.50;;;;;;2248505;61;20430;-51